sensor_id;sensor_type;location;lat;lon;timestamp;pressure;altitude;pressure_sealevel;temperature;humidity
21203;BME280;10759;51.982;9.232;2023-06-10T00:00:08;100405.06;;;18.91;63.06
21203;BME280;10759;51.982;9.232;2023-06-10T00:02:39;100413.97;;;18.93;64.57
21203;BME280;10759;51.982;9.232;2023-06-10T00:05:07;100414.84;;;18.81;65.16
21203;BME280;10759;51.982;9.232;2023-06-10T00:07:36;100417.66;;;18.54;67.43
21203;BME280;10759;51.982;9.232;2023-06-10T00:10:06;100422.00;;;18.56;66.47
21203;BME280;10759;51.982;9.232;2023-06-10T00:12:35;100424.16;;;18.51;67.94
21203;BME280;10759;51.982;9.232;2023-06-10T00:15:07;100423.50;;;18.35;68.92
21203;BME280;10759;51.982;9.232;2023-06-10T00:17:36;100418.16;;;18.20;69.32
21203;BME280;10759;51.982;9.232;2023-06-10T00:20:08;100401.34;;;18.41;67.49
21203;BME280;10759;51.982;9.232;2023-06-10T00:22:39;100419.94;;;18.47;67.28
21203;BME280;10759;51.982;9.232;2023-06-10T00:25:09;100413.94;;;18.42;67.92
21203;BME280;10759;51.982;9.232;2023-06-10T00:27:38;100411.78;;;18.34;69.29
21203;BME280;10759;51.982;9.232;2023-06-10T00:30:09;100229.72;;;17.09;68.85
21203;BME280;10759;51.982;9.232;2023-06-10T00:32:37;100329.53;;;17.68;69.98
21203;BME280;10759;51.982;9.232;2023-06-10T00:35:06;100384.13;;;17.89;70.42
21203;BME280;10759;51.982;9.232;2023-06-10T00:37:35;100409.97;;;17.95;71.30
21203;BME280;10759;51.982;9.232;2023-06-10T00:40:05;100404.97;;;17.89;71.76
21203;BME280;10759;51.982;9.232;2023-06-10T00:42:35;100412.44;;;17.85;71.63
21203;BME280;10759;51.982;9.232;2023-06-10T00:45:05;100405.56;;;17.79;72.04
21203;BME280;10759;51.982;9.232;2023-06-10T00:47:37;100404.63;;;17.80;71.71
21203;BME280;10759;51.982;9.232;2023-06-10T00:50:06;100390.47;;;17.75;70.96
21203;BME280;10759;51.982;9.232;2023-06-10T00:52:35;100404.25;;;17.72;71.55
21203;BME280;10759;51.982;9.232;2023-06-10T00:55:04;100401.59;;;17.58;71.65
21203;BME280;10759;51.982;9.232;2023-06-10T00:57:35;100404.19;;;17.59;71.39
21203;BME280;10759;51.982;9.232;2023-06-10T01:00:05;100391.56;;;17.46;71.65
21203;BME280;10759;51.982;9.232;2023-06-10T01:02:37;100391.38;;;17.49;71.43
21203;BME280;10759;51.982;9.232;2023-06-10T01:05:06;100392.38;;;17.33;72.04
21203;BME280;10759;51.982;9.232;2023-06-10T01:07:38;100391.69;;;17.30;72.39
21203;BME280;10759;51.982;9.232;2023-06-10T01:10:12;100395.47;;;17.27;72.38
21203;BME280;10759;51.982;9.232;2023-06-10T01:12:49;100395.13;;;17.19;73.13
21203;BME280;10759;51.982;9.232;2023-06-10T01:15:21;100380.47;;;16.94;73.50
21203;BME280;10759;51.982;9.232;2023-06-10T01:18:01;100398.84;;;17.04;74.37
21203;BME280;10759;51.982;9.232;2023-06-10T01:20:31;100410.03;;;16.98;74.37
21203;BME280;10759;51.982;9.232;2023-06-10T01:23:02;100412.09;;;16.94;74.99
21203;BME280;10759;51.982;9.232;2023-06-10T01:25:31;100413.53;;;16.85;75.67
21203;BME280;10759;51.982;9.232;2023-06-10T01:28:06;100408.53;;;16.79;75.98
21203;BME280;10759;51.982;9.232;2023-06-10T01:30:39;100415.81;;;16.77;76.08
21203;BME280;10759;51.982;9.232;2023-06-10T01:33:13;100359.41;;;16.28;77.47
21203;BME280;10759;51.982;9.232;2023-06-10T01:35:44;100416.00;;;16.45;77.83
21203;BME280;10759;51.982;9.232;2023-06-10T01:38:15;100417.66;;;16.48;77.95
21203;BME280;10759;51.982;9.232;2023-06-10T01:40:46;100407.53;;;16.51;78.01
21203;BME280;10759;51.982;9.232;2023-06-10T01:43:16;100406.53;;;16.52;77.73
21203;BME280;10759;51.982;9.232;2023-06-10T01:45:45;100406.16;;;16.59;77.56
21203;BME280;10759;51.982;9.232;2023-06-10T01:48:13;100411.19;;;16.65;76.98
21203;BME280;10759;51.982;9.232;2023-06-10T01:50:41;100410.50;;;16.61;77.23
21203;BME280;10759;51.982;9.232;2023-06-10T01:53:10;100418.72;;;16.60;76.98
21203;BME280;10759;51.982;9.232;2023-06-10T01:55:40;100425.69;;;16.64;76.36
21203;BME280;10759;51.982;9.232;2023-06-10T01:58:08;100419.03;;;16.69;76.22
21203;BME280;10759;51.982;9.232;2023-06-10T02:00:36;100397.28;;;16.57;75.60
21203;BME280;10759;51.982;9.232;2023-06-10T02:03:04;100419.97;;;16.54;76.06
21203;BME280;10759;51.982;9.232;2023-06-10T02:05:33;100428.38;;;16.49;76.72
21203;BME280;10759;51.982;9.232;2023-06-10T02:08:01;100425.19;;;16.43;77.43
21203;BME280;10759;51.982;9.232;2023-06-10T02:10:29;100431.38;;;16.45;77.63
21203;BME280;10759;51.982;9.232;2023-06-10T02:12:59;100441.31;;;16.44;77.82
21203;BME280;10759;51.982;9.232;2023-06-10T02:15:27;100439.94;;;16.37;78.14
21203;BME280;10759;51.982;9.232;2023-06-10T02:17:55;100440.22;;;16.33;78.48
21203;BME280;10759;51.982;9.232;2023-06-10T02:20:24;100444.34;;;16.24;78.86
21203;BME280;10759;51.982;9.232;2023-06-10T02:22:53;100434.94;;;16.01;80.18
21203;BME280;10759;51.982;9.232;2023-06-10T02:25:21;100451.22;;;15.99;80.26
21203;BME280;10759;51.982;9.232;2023-06-10T02:27:49;100387.56;;;15.63;80.49
21203;BME280;10759;51.982;9.232;2023-06-10T02:30:19;100454.72;;;16.01;80.83
21203;BME280;10759;51.982;9.232;2023-06-10T02:32:47;100458.19;;;15.73;80.92
21203;BME280;10759;51.982;9.232;2023-06-10T02:35:17;100444.47;;;15.60;82.50
21203;BME280;10759;51.982;9.232;2023-06-10T02:37:45;100453.72;;;15.72;82.96
21203;BME280;10759;51.982;9.232;2023-06-10T02:40:14;100425.31;;;15.49;83.38
21203;BME280;10759;51.982;9.232;2023-06-10T02:42:42;100456.53;;;15.71;83.39
21203;BME280;10759;51.982;9.232;2023-06-10T02:45:11;100452.06;;;15.70;82.88
21203;BME280;10759;51.982;9.232;2023-06-10T02:47:43;100450.22;;;15.70;82.81
21203;BME280;10759;51.982;9.232;2023-06-10T02:50:12;100461.22;;;15.83;81.90
21203;BME280;10759;51.982;9.232;2023-06-10T02:52:59;100454.63;;;15.73;81.95
21203;BME280;10759;51.982;9.232;2023-06-10T02:55:27;100449.03;;;15.76;81.58
21203;BME280;10759;51.982;9.232;2023-06-10T02:58:00;100470.88;;;15.87;81.23
21203;BME280;10759;51.982;9.232;2023-06-10T03:00:30;100464.50;;;15.88;81.76
21203;BME280;10759;51.982;9.232;2023-06-10T03:03:00;100461.53;;;15.93;80.83
21203;BME280;10759;51.982;9.232;2023-06-10T03:05:34;100442.47;;;15.80;81.20
21203;BME280;10759;51.982;9.232;2023-06-10T03:08:05;100458.50;;;15.83;81.70
21203;BME280;10759;51.982;9.232;2023-06-10T03:10:36;100432.63;;;15.63;82.00
21203;BME280;10759;51.982;9.232;2023-06-10T03:13:04;100461.56;;;15.77;82.39
21203;BME280;10759;51.982;9.232;2023-06-10T03:15:33;100457.31;;;15.73;82.45
21203;BME280;10759;51.982;9.232;2023-06-10T03:18:07;100462.22;;;15.64;82.80
21203;BME280;10759;51.982;9.232;2023-06-10T03:20:36;100455.78;;;15.67;83.06
21203;BME280;10759;51.982;9.232;2023-06-10T03:23:09;100463.03;;;15.66;83.01
21203;BME280;10759;51.982;9.232;2023-06-10T03:25:37;100467.63;;;15.64;83.18
21203;BME280;10759;51.982;9.232;2023-06-10T03:28:06;100468.69;;;15.62;83.33
21203;BME280;10759;51.982;9.232;2023-06-10T03:30:35;100456.31;;;15.58;83.60
21203;BME280;10759;51.982;9.232;2023-06-10T03:33:04;100465.31;;;15.58;83.43
21203;BME280;10759;51.982;9.232;2023-06-10T03:35:33;100460.75;;;15.59;83.23
21203;BME280;10759;51.982;9.232;2023-06-10T03:38:03;100462.06;;;15.52;83.91
21203;BME280;10759;51.982;9.232;2023-06-10T03:40:31;100464.09;;;15.48;83.92
21203;BME280;10759;51.982;9.232;2023-06-10T03:43:00;100438.38;;;15.25;84.64
21203;BME280;10759;51.982;9.232;2023-06-10T03:45:30;100442.91;;;15.40;84.59
21203;BME280;10759;51.982;9.232;2023-06-10T03:47:59;100473.81;;;15.66;84.31
21203;BME280;10759;51.982;9.232;2023-06-10T03:50:35;100480.38;;;15.78;83.45
21203;BME280;10759;51.982;9.232;2023-06-10T03:53:03;100473.41;;;15.90;82.15
21203;BME280;10759;51.982;9.232;2023-06-10T03:55:32;100459.91;;;15.90;81.56
21203;BME280;10759;51.982;9.232;2023-06-10T03:58:00;100476.34;;;16.01;82.79
21203;BME280;10759;51.982;9.232;2023-06-10T04:00:28;100473.56;;;16.03;82.23
21203;BME280;10759;51.982;9.232;2023-06-10T04:02:57;100474.81;;;16.12;81.75
21203;BME280;10759;51.982;9.232;2023-06-10T04:05:30;100461.88;;;16.02;83.08
21203;BME280;10759;51.982;9.232;2023-06-10T04:08:00;100457.16;;;16.06;81.97
21203;BME280;10759;51.982;9.232;2023-06-10T04:10:28;100474.59;;;16.30;81.38
21203;BME280;10759;51.982;9.232;2023-06-10T04:12:56;100478.94;;;16.33;82.15
21203;BME280;10759;51.982;9.232;2023-06-10T04:15:29;100466.31;;;16.48;81.76
21203;BME280;10759;51.982;9.232;2023-06-10T04:18:04;100472.13;;;16.56;82.04
21203;BME280;10759;51.982;9.232;2023-06-10T04:20:33;100477.28;;;16.75;80.10
21203;BME280;10759;51.982;9.232;2023-06-10T04:23:02;100466.59;;;16.88;80.23
21203;BME280;10759;51.982;9.232;2023-06-10T04:25:31;100480.81;;;17.06;79.71
21203;BME280;10759;51.982;9.232;2023-06-10T04:27:59;100459.16;;;17.06;79.61
21203;BME280;10759;51.982;9.232;2023-06-10T04:30:27;100470.94;;;17.19;79.39
21203;BME280;10759;51.982;9.232;2023-06-10T04:32:55;100496.34;;;17.45;78.01
21203;BME280;10759;51.982;9.232;2023-06-10T04:35:23;100500.41;;;17.52;75.88
21203;BME280;10759;51.982;9.232;2023-06-10T04:37:54;100501.41;;;18.06;76.11
21203;BME280;10759;51.982;9.232;2023-06-10T04:40:24;100506.00;;;18.58;72.40
21203;BME280;10759;51.982;9.232;2023-06-10T04:42:52;100505.41;;;18.93;70.75
21203;BME280;10759;51.982;9.232;2023-06-10T04:45:21;100501.03;;;19.28;69.73
21203;BME280;10759;51.982;9.232;2023-06-10T04:47:49;100502.13;;;19.76;67.52
21203;BME280;10759;51.982;9.232;2023-06-10T04:50:18;100500.72;;;20.42;64.12
21203;BME280;10759;51.982;9.232;2023-06-10T04:52:48;100492.28;;;20.69;60.76
21203;BME280;10759;51.982;9.232;2023-06-10T04:55:16;100501.25;;;21.05;59.87
21203;BME280;10759;51.982;9.232;2023-06-10T04:57:45;100379.97;;;20.21;59.16
21203;BME280;10759;51.982;9.232;2023-06-10T05:00:16;100493.44;;;20.89;59.80
21203;BME280;10759;51.982;9.232;2023-06-10T05:02:44;100502.34;;;20.91;59.59
21203;BME280;10759;51.982;9.232;2023-06-10T05:05:16;100497.91;;;21.13;59.32
21203;BME280;10759;51.982;9.232;2023-06-10T05:07:44;100499.50;;;21.04;59.79
21203;BME280;10759;51.982;9.232;2023-06-10T05:10:12;100503.38;;;21.13;59.46
21203;BME280;10759;51.982;9.232;2023-06-10T05:12:40;100479.31;;;20.73;61.68
21203;BME280;10759;51.982;9.232;2023-06-10T05:15:10;100460.13;;;20.63;62.63
21203;BME280;10759;51.982;9.232;2023-06-10T05:17:38;100485.53;;;20.51;61.11
21203;BME280;10759;51.982;9.232;2023-06-10T05:20:07;100489.59;;;20.10;63.20
21203;BME280;10759;51.982;9.232;2023-06-10T05:22:35;100479.06;;;20.05;64.75
21203;BME280;10759;51.982;9.232;2023-06-10T05:25:03;100493.41;;;20.07;64.50
21203;BME280;10759;51.982;9.232;2023-06-10T05:27:32;100494.06;;;20.11;64.99
21203;BME280;10759;51.982;9.232;2023-06-10T05:29:59;100493.25;;;19.98;65.84
21203;BME280;10759;51.982;9.232;2023-06-10T05:32:29;100491.50;;;19.72;66.15
21203;BME280;10759;51.982;9.232;2023-06-10T05:34:57;100470.75;;;19.71;68.48
21203;BME280;10759;51.982;9.232;2023-06-10T05:37:26;100478.09;;;19.82;67.19
21203;BME280;10759;51.982;9.232;2023-06-10T05:39:54;100487.34;;;19.30;70.11
21203;BME280;10759;51.982;9.232;2023-06-10T05:42:22;100478.19;;;19.31;68.32
21203;BME280;10759;51.982;9.232;2023-06-10T05:44:50;100488.56;;;19.13;72.33
21203;BME280;10759;51.982;9.232;2023-06-10T05:47:18;100480.91;;;19.31;72.31
21203;BME280;10759;51.982;9.232;2023-06-10T05:49:47;100477.97;;;19.34;73.28
21203;BME280;10759;51.982;9.232;2023-06-10T05:52:16;100478.22;;;19.18;74.04
21203;BME280;10759;51.982;9.232;2023-06-10T05:54:44;100475.88;;;18.88;74.34
21203;BME280;10759;51.982;9.232;2023-06-10T05:57:12;100471.72;;;19.08;72.41
21203;BME280;10759;51.982;9.232;2023-06-10T05:59:40;100470.34;;;19.39;71.20
21203;BME280;10759;51.982;9.232;2023-06-10T06:02:08;100451.50;;;19.62;71.58
21203;BME280;10759;51.982;9.232;2023-06-10T06:04:36;100423.44;;;19.61;69.98
21203;BME280;10759;51.982;9.232;2023-06-10T06:07:05;100470.03;;;19.81;68.49
21203;BME280;10759;51.982;9.232;2023-06-10T06:09:33;100419.31;;;19.56;69.42
21203;BME280;10759;51.982;9.232;2023-06-10T06:12:01;100437.81;;;19.87;67.79
21203;BME280;10759;51.982;9.232;2023-06-10T06:14:31;100461.88;;;20.40;67.42
21203;BME280;10759;51.982;9.232;2023-06-10T06:16:59;100470.19;;;20.50;68.64
21203;BME280;10759;51.982;9.232;2023-06-10T06:19:27;100471.31;;;20.12;68.39
21203;BME280;10759;51.982;9.232;2023-06-10T06:21:55;100470.94;;;20.16;68.29
21203;BME280;10759;51.982;9.232;2023-06-10T06:24:25;100473.44;;;20.20;69.06
21203;BME280;10759;51.982;9.232;2023-06-10T06:26:53;100469.59;;;19.87;69.64
21203;BME280;10759;51.982;9.232;2023-06-10T06:29:21;100479.59;;;19.86;70.93
21203;BME280;10759;51.982;9.232;2023-06-10T06:31:49;100467.66;;;19.63;73.63
21203;BME280;10759;51.982;9.232;2023-06-10T06:34:18;100440.88;;;19.83;70.48
21203;BME280;10759;51.982;9.232;2023-06-10T06:36:46;100488.59;;;19.50;74.03
21203;BME280;10759;51.982;9.232;2023-06-10T06:39:14;100489.25;;;20.14;72.04
21203;BME280;10759;51.982;9.232;2023-06-10T06:41:44;100486.44;;;20.27;70.26
21203;BME280;10759;51.982;9.232;2023-06-10T06:44:12;100470.28;;;19.65;72.52
21203;BME280;10759;51.982;9.232;2023-06-10T06:46:43;100481.41;;;19.49;75.57
21203;BME280;10759;51.982;9.232;2023-06-10T06:49:11;100490.78;;;20.06;74.07
21203;BME280;10759;51.982;9.232;2023-06-10T06:51:39;100481.38;;;19.99;74.50
21203;BME280;10759;51.982;9.232;2023-06-10T06:54:07;100468.66;;;19.99;75.29
21203;BME280;10759;51.982;9.232;2023-06-10T06:56:35;100482.81;;;20.15;74.47
21203;BME280;10759;51.982;9.232;2023-06-10T06:59:06;100490.47;;;19.86;73.89
21203;BME280;10759;51.982;9.232;2023-06-10T07:01:34;100497.47;;;20.26;73.17
21203;BME280;10759;51.982;9.232;2023-06-10T07:04:03;100483.53;;;20.42;72.92
21203;BME280;10759;51.982;9.232;2023-06-10T07:06:31;100493.47;;;19.94;74.01
21203;BME280;10759;51.982;9.232;2023-06-10T07:09:03;100497.06;;;20.30;76.53
21203;BME280;10759;51.982;9.232;2023-06-10T07:11:31;100507.16;;;20.76;72.92
21203;BME280;10759;51.982;9.232;2023-06-10T07:13:59;100462.72;;;20.76;72.79
21203;BME280;10759;51.982;9.232;2023-06-10T07:16:28;100469.03;;;21.21;69.56
21203;BME280;10759;51.982;9.232;2023-06-10T07:18:56;100491.63;;;21.46;68.49
21203;BME280;10759;51.982;9.232;2023-06-10T07:21:24;100503.00;;;21.74;68.17
21203;BME280;10759;51.982;9.232;2023-06-10T07:23:52;100457.88;;;22.02;65.49
21203;BME280;10759;51.982;9.232;2023-06-10T07:26:22;100510.31;;;22.49;63.49
21203;BME280;10759;51.982;9.232;2023-06-10T07:28:50;100511.78;;;22.53;62.89
21203;BME280;10759;51.982;9.232;2023-06-10T07:31:18;100514.53;;;22.53;64.85
21203;BME280;10759;51.982;9.232;2023-06-10T07:33:47;100508.97;;;22.00;63.20
21203;BME280;10759;51.982;9.232;2023-06-10T07:36:15;100515.94;;;22.04;64.97
21203;BME280;10759;51.982;9.232;2023-06-10T07:38:43;100504.91;;;22.59;65.57
21203;BME280;10759;51.982;9.232;2023-06-10T07:41:11;100506.13;;;22.66;61.81
21203;BME280;10759;51.982;9.232;2023-06-10T07:43:39;100504.25;;;22.87;59.41
21203;BME280;10759;51.982;9.232;2023-06-10T07:46:07;100492.31;;;22.88;57.93
21203;BME280;10759;51.982;9.232;2023-06-10T07:48:35;100515.41;;;22.75;60.71
21203;BME280;10759;51.982;9.232;2023-06-10T07:51:05;100514.03;;;22.16;63.09
21203;BME280;10759;51.982;9.232;2023-06-10T07:53:33;100521.94;;;22.62;63.09
21203;BME280;10759;51.982;9.232;2023-06-10T07:56:01;100512.50;;;22.76;61.16
21203;BME280;10759;51.982;9.232;2023-06-10T07:58:29;100508.16;;;22.32;62.11
21203;BME280;10759;51.982;9.232;2023-06-10T08:00:57;100505.72;;;22.91;62.71
21203;BME280;10759;51.982;9.232;2023-06-10T08:03:25;100508.31;;;22.93;61.56
21203;BME280;10759;51.982;9.232;2023-06-10T08:05:53;100514.41;;;23.27;61.38
21203;BME280;10759;51.982;9.232;2023-06-10T08:08:22;100515.78;;;23.43;59.12
21203;BME280;10759;51.982;9.232;2023-06-10T08:10:50;100515.25;;;22.97;61.46
21203;BME280;10759;51.982;9.232;2023-06-10T08:13:18;100516.31;;;23.06;64.12
21203;BME280;10759;51.982;9.232;2023-06-10T08:15:47;100509.91;;;22.54;65.24
21203;BME280;10759;51.982;9.232;2023-06-10T08:18:17;100519.78;;;23.08;64.71
21203;BME280;10759;51.982;9.232;2023-06-10T08:20:45;100516.50;;;23.45;61.09
21203;BME280;10759;51.982;9.232;2023-06-10T08:23:14;100513.28;;;23.61;62.08
21203;BME280;10759;51.982;9.232;2023-06-10T08:25:43;100524.31;;;23.80;62.15
21203;BME280;10759;51.982;9.232;2023-06-10T08:28:11;100520.38;;;23.42;59.13
21203;BME280;10759;51.982;9.232;2023-06-10T08:30:39;100520.97;;;23.76;58.94
21203;BME280;10759;51.982;9.232;2023-06-10T08:33:07;100520.00;;;24.16;59.91
21203;BME280;10759;51.982;9.232;2023-06-10T08:35:35;100528.06;;;23.98;56.77
21203;BME280;10759;51.982;9.232;2023-06-10T08:38:03;100529.34;;;23.54;60.44
21203;BME280;10759;51.982;9.232;2023-06-10T08:40:31;100525.94;;;24.21;57.20
21203;BME280;10759;51.982;9.232;2023-06-10T08:43:05;100524.66;;;24.35;56.06
21203;BME280;10759;51.982;9.232;2023-06-10T08:45:35;100527.00;;;24.59;54.17
21203;BME280;10759;51.982;9.232;2023-06-10T08:48:04;100516.03;;;24.59;54.81
21203;BME280;10759;51.982;9.232;2023-06-10T08:50:36;100503.56;;;23.47;56.20
21203;BME280;10759;51.982;9.232;2023-06-10T08:53:05;100522.25;;;23.82;55.00
21203;BME280;10759;51.982;9.232;2023-06-10T08:55:36;100514.41;;;24.28;55.16
21203;BME280;10759;51.982;9.232;2023-06-10T08:58:06;100520.78;;;23.68;57.43
21203;BME280;10759;51.982;9.232;2023-06-10T09:00:34;100488.63;;;24.11;56.17
21203;BME280;10759;51.982;9.232;2023-06-10T09:03:04;100519.34;;;24.63;49.22
21203;BME280;10759;51.982;9.232;2023-06-10T09:05:36;100468.31;;;24.13;55.83
21203;BME280;10759;51.982;9.232;2023-06-10T09:08:05;100513.44;;;24.48;45.16
21203;BME280;10759;51.982;9.232;2023-06-10T09:10:34;100510.25;;;24.53;44.61
21203;BME280;10759;51.982;9.232;2023-06-10T09:13:02;100510.56;;;24.59;45.55
21203;BME280;10759;51.982;9.232;2023-06-10T09:15:31;100491.78;;;24.45;44.03
21203;BME280;10759;51.982;9.232;2023-06-10T09:17:59;100492.84;;;25.11;43.08
21203;BME280;10759;51.982;9.232;2023-06-10T09:20:27;100495.28;;;25.14;43.07
21203;BME280;10759;51.982;9.232;2023-06-10T09:22:55;100475.09;;;25.05;43.83
21203;BME280;10759;51.982;9.232;2023-06-10T09:25:35;100492.97;;;25.56;44.31
21203;BME280;10759;51.982;9.232;2023-06-10T09:28:03;100487.44;;;24.81;44.33
21203;BME280;10759;51.982;9.232;2023-06-10T09:30:34;100485.97;;;24.97;45.55
21203;BME280;10759;51.982;9.232;2023-06-10T09:33:03;100502.94;;;25.20;45.62
21203;BME280;10759;51.982;9.232;2023-06-10T09:35:45;100494.31;;;25.42;45.93
21203;BME280;10759;51.982;9.232;2023-06-10T09:38:14;100496.94;;;24.87;45.32
21203;BME280;10759;51.982;9.232;2023-06-10T09:40:50;100480.25;;;24.61;44.88
21203;BME280;10759;51.982;9.232;2023-06-10T09:43:18;100482.34;;;25.06;46.74
21203;BME280;10759;51.982;9.232;2023-06-10T09:45:49;100480.31;;;25.45;45.13
21203;BME280;10759;51.982;9.232;2023-06-10T09:48:19;100483.00;;;25.83;45.59
21203;BME280;10759;51.982;9.232;2023-06-10T09:50:48;100398.31;;;25.42;45.53
21203;BME280;10759;51.982;9.232;2023-06-10T09:53:17;100485.38;;;26.13;47.56
21203;BME280;10759;51.982;9.232;2023-06-10T09:55:45;100486.09;;;25.70;44.81
21203;BME280;10759;51.982;9.232;2023-06-10T09:58:14;100481.47;;;25.98;46.06
21203;BME280;10759;51.982;9.232;2023-06-10T10:00:42;100484.22;;;25.43;44.59
21203;BME280;10759;51.982;9.232;2023-06-10T10:03:22;100478.44;;;25.09;47.28
21203;BME280;10759;51.982;9.232;2023-06-10T10:05:57;100477.06;;;25.60;45.27
21203;BME280;10759;51.982;9.232;2023-06-10T10:08:26;100478.88;;;25.69;44.39
21203;BME280;10759;51.982;9.232;2023-06-10T10:10:56;100487.22;;;25.77;42.83
21203;BME280;10759;51.982;9.232;2023-06-10T10:13:26;100488.47;;;25.83;45.31
21203;BME280;10759;51.982;9.232;2023-06-10T10:15:57;100485.84;;;25.91;45.58
21203;BME280;10759;51.982;9.232;2023-06-10T10:18:29;100492.69;;;26.05;44.12
21203;BME280;10759;51.982;9.232;2023-06-10T10:21:01;100496.66;;;25.37;43.66
21203;BME280;10759;51.982;9.232;2023-06-10T10:23:38;100499.59;;;25.81;44.88
21203;BME280;10759;51.982;9.232;2023-06-10T10:26:10;100494.47;;;25.96;43.59
21203;BME280;10759;51.982;9.232;2023-06-10T10:28:43;100498.47;;;25.19;43.97
21203;BME280;10759;51.982;9.232;2023-06-10T10:31:15;100496.38;;;25.40;42.72
21203;BME280;10759;51.982;9.232;2023-06-10T10:33:52;100492.41;;;25.80;45.49
21203;BME280;10759;51.982;9.232;2023-06-10T10:36:23;100490.31;;;25.37;43.65
21203;BME280;10759;51.982;9.232;2023-06-10T10:38:52;100490.16;;;25.38;43.93
21203;BME280;10759;51.982;9.232;2023-06-10T10:41:21;100482.97;;;25.27;43.21
21203;BME280;10759;51.982;9.232;2023-06-10T10:43:52;100487.09;;;25.69;44.22
21203;BME280;10759;51.982;9.232;2023-06-10T10:46:21;100490.09;;;25.76;44.39
21203;BME280;10759;51.982;9.232;2023-06-10T10:48:53;100492.59;;;25.69;45.02
21203;BME280;10759;51.982;9.232;2023-06-10T10:51:22;100500.16;;;25.30;44.14
21203;BME280;10759;51.982;9.232;2023-06-10T10:54:12;100490.34;;;25.27;46.16
21203;BME280;10759;51.982;9.232;2023-06-10T10:59:50;100496.13;;;25.79;45.41
21203;BME280;10759;51.982;9.232;2023-06-10T11:02:42;100488.91;;;25.60;46.41
21203;BME280;10759;51.982;9.232;2023-06-10T11:05:14;100487.56;;;25.37;44.84
21203;BME280;10759;51.982;9.232;2023-06-10T11:07:52;100477.84;;;25.05;46.35
21203;BME280;10759;51.982;9.232;2023-06-10T11:10:29;100489.94;;;25.22;44.61
21203;BME280;10759;51.982;9.232;2023-06-10T11:12:58;100486.00;;;25.34;46.25
21203;BME280;10759;51.982;9.232;2023-06-10T11:15:28;100476.56;;;25.46;45.41
21203;BME280;10759;51.982;9.232;2023-06-10T11:18:27;100474.47;;;25.58;44.86
21203;BME280;10759;51.982;9.232;2023-06-10T11:21:00;100476.84;;;25.71;45.08
21203;BME280;10759;51.982;9.232;2023-06-10T11:23:34;100484.63;;;25.48;43.76
21203;BME280;10759;51.982;9.232;2023-06-10T11:26:14;100475.00;;;25.62;45.90
21203;BME280;10759;51.982;9.232;2023-06-10T11:29:09;100474.53;;;25.94;42.93
21203;BME280;10759;51.982;9.232;2023-06-10T11:31:40;100469.56;;;26.07;44.18
21203;BME280;10759;51.982;9.232;2023-06-10T11:34:09;100467.00;;;25.51;44.19
21203;BME280;10759;51.982;9.232;2023-06-10T11:36:41;100465.66;;;25.82;45.11
21203;BME280;10759;51.982;9.232;2023-06-10T11:39:12;100469.47;;;26.17;46.42
21203;BME280;10759;51.982;9.232;2023-06-10T11:41:40;100467.72;;;26.16;45.09
21203;BME280;10759;51.982;9.232;2023-06-10T11:44:10;100468.91;;;26.13;45.94
21203;BME280;10759;51.982;9.232;2023-06-10T11:46:41;100461.97;;;26.45;46.25
21203;BME280;10759;51.982;9.232;2023-06-10T11:49:11;100438.09;;;26.20;46.94
21203;BME280;10759;51.982;9.232;2023-06-10T11:51:41;100428.22;;;26.09;48.54
21203;BME280;10759;51.982;9.232;2023-06-10T11:54:16;100462.41;;;26.32;46.25
21203;BME280;10759;51.982;9.232;2023-06-10T11:56:46;100455.34;;;26.12;46.51
21203;BME280;10759;51.982;9.232;2023-06-10T11:59:14;100458.66;;;25.70;47.11
21203;BME280;10759;51.982;9.232;2023-06-10T12:01:44;100448.19;;;26.01;48.00
21203;BME280;10759;51.982;9.232;2023-06-10T12:04:15;100446.66;;;25.71;49.38
21203;BME280;10759;51.982;9.232;2023-06-10T12:06:47;100448.38;;;26.00;49.29
21203;BME280;10759;51.982;9.232;2023-06-10T12:09:20;100453.84;;;26.18;49.78
21203;BME280;10759;51.982;9.232;2023-06-10T12:11:54;100444.31;;;25.76;48.68
21203;BME280;10759;51.982;9.232;2023-06-10T12:14:50;100443.09;;;25.88;51.32
21203;BME280;10759;51.982;9.232;2023-06-10T12:17:21;100432.22;;;25.69;49.89
21203;BME280;10759;51.982;9.232;2023-06-10T12:19:50;100444.00;;;26.07;49.35
21203;BME280;10759;51.982;9.232;2023-06-10T12:22:19;100446.41;;;26.10;51.59
21203;BME280;10759;51.982;9.232;2023-06-10T12:25:00;100441.84;;;26.37;51.02
21203;BME280;10759;51.982;9.232;2023-06-10T12:27:29;100440.50;;;26.59;50.63
21203;BME280;10759;51.982;9.232;2023-06-10T12:29:59;100437.00;;;26.74;49.05
21203;BME280;10759;51.982;9.232;2023-06-10T12:32:38;100440.81;;;26.82;49.82
21203;BME280;10759;51.982;9.232;2023-06-10T12:35:07;100432.53;;;26.73;51.67
21203;BME280;10759;51.982;9.232;2023-06-10T12:37:37;100438.03;;;26.73;49.48
21203;BME280;10759;51.982;9.232;2023-06-10T12:40:10;100434.69;;;26.44;49.98
21203;BME280;10759;51.982;9.232;2023-06-10T12:42:39;100433.06;;;26.15;50.60
21203;BME280;10759;51.982;9.232;2023-06-10T12:45:08;100422.72;;;26.09;51.15
21203;BME280;10759;51.982;9.232;2023-06-10T12:47:37;100409.28;;;26.06;51.56
21203;BME280;10759;51.982;9.232;2023-06-10T12:50:07;100422.63;;;26.19;52.39
21203;BME280;10759;51.982;9.232;2023-06-10T12:52:37;100321.34;;;25.89;52.22
21203;BME280;10759;51.982;9.232;2023-06-10T12:55:06;100431.28;;;26.50;53.60
21203;BME280;10759;51.982;9.232;2023-06-10T12:57:35;100408.59;;;26.22;51.08
21203;BME280;10759;51.982;9.232;2023-06-10T13:00:04;100356.72;;;26.19;48.00
21203;BME280;10759;51.982;9.232;2023-06-10T13:02:35;100419.22;;;26.43;47.63
21203;BME280;10759;51.982;9.232;2023-06-10T13:05:04;100422.03;;;26.69;49.93
21203;BME280;10759;51.982;9.232;2023-06-10T13:07:32;100417.56;;;26.50;49.79